aviador You're here:

KCON Decoded Metar

CONCORD in NH, USA
Report Time2018-01-18 13:51:00
UTC Time2018-01-18 13:56:48
Flight Rules vfr VFR
Wind310° at 09 kt
W.Decomp.*RWY 35: 8.2 kt HW 3.7 kt LCW
RWY 30: 8.1 kt HW 3.9 kt RCW
W.Rank310° ranks 1
Current wind is above 310° avg. (8.9)
Visibility9999 m
Phenomena:N/A
Clouds:N/A
Expected CloudBase > 1,600 ft AGL from Temp-Dew spread
CeilingNone
Temp-8°C (ISA -22)
Dew Point-12°C (73% RH)
AAT-14.4°C
QNH1015 hPa
Density Alt-2,474 ft
Elevation338 ft
Report Wrong Elevation
Raw Report
KCON 181351Z AUTO 31009KT 10SM CLR M08/M12 A2996 RMK AO2 SLP150
T10831117=

Extra information for KCON:More info

Metar Taf Metar & Taf Last 4 Metars F.Rules Stats Wind Profile Meteogram Temp Stats Airport Information Weather charts Add Link Nearby VenuesMetar ALERT Operation Metar Decoded Social comments

AIRNAV info for KCON